Seadream 1 — C6PW8 — position and weather

sailwx.info

Track history (hours):
 
Tides and Currents Weather Stations Pressure Air Temp Water Temp Dewpoint Dewpoint Depression Visibility Wind Speed Wind Dir Waves Ship Positions

Seadream 1

Last reported at 2017-Jan-17 03:30 UTC. Time now 2017-Jan-21 15:35 UTC.
Position N 15°44' W 061°38'.

Length 105 m; draft 4.3 m.

Type: Ship. MMSI: 308908000.

Date/timePositionNaut miles runAvg speedWind from/ knotsBaromVisibWave heightAir tempDewpointWater temp
2017-Jan-17 03:30N 15°44' W 061°38'8 0.6
2017-Jan-16 14:11N 15°52' W 061°36'0 0.0
2017-Jan-16 13:26N 15°52' W 061°36'0 0.0
2017-Jan-16 12:32N 15°52' W 061°36'7 5.2
2017-Jan-16 11:11N 15°56' W 061°42'6 9.2
2017-Jan-16 10:31N 16°00' W 061°47'10 9.9
2017-Jan-16 09:33N 16°08' W 061°53'1010.0
2017-Jan-16 08:34N 16°15' W 061°59'9 9.5
2017-Jan-16 07:33N 16°23' W 062°06'9 9.5
2017-Jan-16 06:33N 16°30' W 062°12'10 9.6
2017-Jan-16 05:33N 16°38' W 062°18'  
2017-Jan-12 08:33N 16°45' W 062°23'9 8.8
2017-Jan-12 07:33N 16°38' W 062°18'9 9.4
2017-Jan-12 06:33N 16°32' W 062°11'1010.0
2017-Jan-12 05:33N 16°26' W 062°02'1111.2
2017-Jan-12 04:33N 16°19' W 061°54'1613.4
2017-Jan-12 03:23N 16°04' W 061°48'17 1.1
2017-Jan-11 12:31N 15°52' W 061°36'4 3.1
2017-Jan-11 11:23N 15°52' W 061°40'7 8.7
2017-Jan-11 10:33N 15°45' W 061°38'  
Track history (hours):
 
Tides and Currents Weather Stations Pressure Air Temp Water Temp Dewpoint Dewpoint Depression Visibility Wind Speed Wind Dir Waves Ship Positions

Seadream 1

Last reported at 2017-Jan-17 03:30 UTC. Time now 2017-Jan-21 15:35 UTC.
Position N 15°44' W 061°38'.

Length 105 m; draft 4.3 m.

Type: Ship. MMSI: 308908000.

Date/timePositionNaut miles runAvg speedWind from/ knotsBaromVisibWave heightAir tempDewpointWater temp
2017-Jan-17 03:30N 15°44' W 061°38'8 0.6
2017-Jan-16 14:11N 15°52' W 061°36'0 0.0
2017-Jan-16 13:26N 15°52' W 061°36'0 0.0
2017-Jan-16 12:32N 15°52' W 061°36'7 5.2
2017-Jan-16 11:11N 15°56' W 061°42'6 9.2
2017-Jan-16 10:31N 16°00' W 061°47'10 9.9
2017-Jan-16 09:33N 16°08' W 061°53'1010.0
2017-Jan-16 08:34N 16°15' W 061°59'9 9.5
2017-Jan-16 07:33N 16°23' W 062°06'9 9.5
2017-Jan-16 06:33N 16°30' W 062°12'10 9.6
2017-Jan-16 05:33N 16°38' W 062°18'  
2017-Jan-12 08:33N 16°45' W 062°23'9 8.8
2017-Jan-12 07:33N 16°38' W 062°18'9 9.4
2017-Jan-12 06:33N 16°32' W 062°11'1010.0
2017-Jan-12 05:33N 16°26' W 062°02'1111.2
2017-Jan-12 04:33N 16°19' W 061°54'1613.4
2017-Jan-12 03:23N 16°04' W 061°48'17 1.1
2017-Jan-11 12:31N 15°52' W 061°36'4 3.1
2017-Jan-11 11:23N 15°52' W 061°40'7 8.7
2017-Jan-11 10:33N 15°45' W 061°38'  

Dump ship's entire track history